sensor_id;sensor_type;location;lat;lon;timestamp;temperature;humidity
45383;DHT22;42455;51.660;5.824;2023-07-29T00:00:59;20.9;95.5
45383;DHT22;42455;51.660;5.824;2023-07-29T00:06:05;20.8;95.5
45383;DHT22;42455;51.660;5.824;2023-07-29T00:11:11;20.8;96.0
45383;DHT22;42455;51.660;5.824;2023-07-29T00:16:18;20.8;96.0
45383;DHT22;42455;51.660;5.824;2023-07-29T00:21:24;20.7;96.0
45383;DHT22;42455;51.660;5.824;2023-07-29T00:26:30;20.7;96.0
45383;DHT22;42455;51.660;5.824;2023-07-29T00:31:36;20.6;96.0
45383;DHT22;42455;51.660;5.824;2023-07-29T00:36:43;20.6;96.0
45383;DHT22;42455;51.660;5.824;2023-07-29T00:41:49;20.6;96.5
45383;DHT22;42455;51.660;5.824;2023-07-29T00:46:55;20.6;96.5
45383;DHT22;42455;51.660;5.824;2023-07-29T00:52:01;20.6;96.5
45383;DHT22;42455;51.660;5.824;2023-07-29T00:57:08;20.6;97.0
45383;DHT22;42455;51.660;5.824;2023-07-29T01:02:14;20.6;97.0
45383;DHT22;42455;51.660;5.824;2023-07-29T01:07:39;20.6;97.0
45383;DHT22;42455;51.660;5.824;2023-07-29T01:12:34;20.6;97.5
45383;DHT22;42455;51.660;5.824;2023-07-29T01:17:46;20.6;97.5
45383;DHT22;42455;51.660;5.824;2023-07-29T01:22:39;20.6;97.0
45383;DHT22;42455;51.660;5.824;2023-07-29T01:27:46;20.5;97.0
45383;DHT22;42455;51.660;5.824;2023-07-29T01:32:55;20.5;97.0
45383;DHT22;42455;51.660;5.824;2023-07-29T01:38:05;20.5;97.0
45383;DHT22;42455;51.660;5.824;2023-07-29T01:43:03;20.5;97.0
45383;DHT22;42455;51.660;5.824;2023-07-29T01:48:09;20.4;97.0
45383;DHT22;42455;51.660;5.824;2023-07-29T01:53:16;20.4;97.5
45383;DHT22;42455;51.660;5.824;2023-07-29T01:58:22;20.4;97.5
45383;DHT22;42455;51.660;5.824;2023-07-29T02:03:28;20.4;97.5
45383;DHT22;42455;51.660;5.824;2023-07-29T02:08:34;20.4;97.5
45383;DHT22;42455;51.660;5.824;2023-07-29T02:13:41;20.3;98.0
45383;DHT22;42455;51.660;5.824;2023-07-29T02:18:47;20.3;98.0
45383;DHT22;42455;51.660;5.824;2023-07-29T02:23:53;20.3;98.0
45383;DHT22;42455;51.660;5.824;2023-07-29T02:28:59;20.3;98.0
45383;DHT22;42455;51.660;5.824;2023-07-29T02:34:05;20.3;98.5
45383;DHT22;42455;51.660;5.824;2023-07-29T02:39:12;20.3;98.5
45383;DHT22;42455;51.660;5.824;2023-07-29T02:44:18;20.3;98.5
45383;DHT22;42455;51.660;5.824;2023-07-29T02:49:24;20.3;98.5
45383;DHT22;42455;51.660;5.824;2023-07-29T02:54:30;20.3;98.5
45383;DHT22;42455;51.660;5.824;2023-07-29T02:59:36;20.3;98.0
45383;DHT22;42455;51.660;5.824;2023-07-29T03:04:43;20.3;98.0
45383;DHT22;42455;51.660;5.824;2023-07-29T03:09:49;20.3;97.5
45383;DHT22;42455;51.660;5.824;2023-07-29T03:14:55;20.3;97.5
45383;DHT22;42455;51.660;5.824;2023-07-29T03:20:01;20.3;97.5
45383;DHT22;42455;51.660;5.824;2023-07-29T03:25:08;20.3;97.5
45383;DHT22;42455;51.660;5.824;2023-07-29T03:30:13;20.2;97.0
45383;DHT22;42455;51.660;5.824;2023-07-29T03:35:19;20.2;97.0
45383;DHT22;42455;51.660;5.824;2023-07-29T03:40:25;20.2;97.0
45383;DHT22;42455;51.660;5.824;2023-07-29T03:45:33;20.1;97.0
45383;DHT22;42455;51.660;5.824;2023-07-29T03:50:37;20.1;97.0
45383;DHT22;42455;51.660;5.824;2023-07-29T03:55:44;20.0;97.0
45383;DHT22;42455;51.660;5.824;2023-07-29T04:00:50;20.0;97.0
45383;DHT22;42455;51.660;5.824;2023-07-29T04:05:56;19.9;97.0
45383;DHT22;42455;51.660;5.824;2023-07-29T04:11:02;19.9;96.5
45383;DHT22;42455;51.660;5.824;2023-07-29T04:16:08;19.8;96.5
45383;DHT22;42455;51.660;5.824;2023-07-29T04:21:15;19.7;96.5
45383;DHT22;42455;51.660;5.824;2023-07-29T04:26:21;19.7;96.5
45383;DHT22;42455;51.660;5.824;2023-07-29T04:31:27;19.6;96.5
45383;DHT22;42455;51.660;5.824;2023-07-29T04:36:33;19.6;96.5
45383;DHT22;42455;51.660;5.824;2023-07-29T04:41:40;19.5;96.5
45383;DHT22;42455;51.660;5.824;2023-07-29T04:46:46;19.5;96.5
45383;DHT22;42455;51.660;5.824;2023-07-29T04:51:52;19.5;96.5
45383;DHT22;42455;51.660;5.824;2023-07-29T04:56:58;19.4;96.5
45383;DHT22;42455;51.660;5.824;2023-07-29T05:02:05;19.4;96.5
45383;DHT22;42455;51.660;5.824;2023-07-29T05:07:11;19.3;96.5
45383;DHT22;42455;51.660;5.824;2023-07-29T05:12:17;19.3;96.5
45383;DHT22;42455;51.660;5.824;2023-07-29T05:17:23;19.3;96.5
45383;DHT22;42455;51.660;5.824;2023-07-29T05:22:29;19.3;96.5
45383;DHT22;42455;51.660;5.824;2023-07-29T05:27:35;19.3;97.0
45383;DHT22;42455;51.660;5.824;2023-07-29T05:32:42;19.3;97.0
45383;DHT22;42455;51.660;5.824;2023-07-29T05:37:48;19.4;97.0
45383;DHT22;42455;51.660;5.824;2023-07-29T05:42:54;19.4;97.0
45383;DHT22;42455;51.660;5.824;2023-07-29T05:48:00;19.4;97.0
45383;DHT22;42455;51.660;5.824;2023-07-29T05:53:06;19.4;97.0
45383;DHT22;42455;51.660;5.824;2023-07-29T05:58:13;19.4;96.5
45383;DHT22;42455;51.660;5.824;2023-07-29T06:03:19;19.5;96.5
45383;DHT22;42455;51.660;5.824;2023-07-29T06:08:25;19.5;96.5
45383;DHT22;42455;51.660;5.824;2023-07-29T06:13:31;19.5;96.5
45383;DHT22;42455;51.660;5.824;2023-07-29T06:18:38;19.6;96.5
45383;DHT22;42455;51.660;5.824;2023-07-29T06:23:44;19.6;97.0
45383;DHT22;42455;51.660;5.824;2023-07-29T06:28:50;19.8;96.5
45383;DHT22;42455;51.660;5.824;2023-07-29T06:33:56;19.9;96.5
45383;DHT22;42455;51.660;5.824;2023-07-29T06:39:02;20.1;96.5
45383;DHT22;42455;51.660;5.824;2023-07-29T06:44:09;20.3;96.5
45383;DHT22;42455;51.660;5.824;2023-07-29T06:49:15;20.4;96.0
45383;DHT22;42455;51.660;5.824;2023-07-29T06:54:24;20.6;96.0
45383;DHT22;42455;51.660;5.824;2023-07-29T06:59:27;20.8;95.5
45383;DHT22;42455;51.660;5.824;2023-07-29T07:04:33;21.0;95.0
45383;DHT22;42455;51.660;5.824;2023-07-29T07:09:40;21.1;95.0
45383;DHT22;42455;51.660;5.824;2023-07-29T07:14:46;21.2;94.5
45383;DHT22;42455;51.660;5.824;2023-07-29T07:19:52;21.2;94.0
45383;DHT22;42455;51.660;5.824;2023-07-29T07:24:58;21.3;94.0
45383;DHT22;42455;51.660;5.824;2023-07-29T07:30:05;21.6;94.5
45383;DHT22;42455;51.660;5.824;2023-07-29T07:35:11;21.9;94.5
45383;DHT22;42455;51.660;5.824;2023-07-29T07:40:17;22.1;93.5
45383;DHT22;42455;51.660;5.824;2023-07-29T07:45:23;22.2;93.0
45383;DHT22;42455;51.660;5.824;2023-07-29T07:50:30;22.2;92.5
45383;DHT22;42455;51.660;5.824;2023-07-29T07:55:36;22.2;92.5
45383;DHT22;42455;51.660;5.824;2023-07-29T08:00:42;22.3;92.5
45383;DHT22;42455;51.660;5.824;2023-07-29T08:05:48;22.4;92.5
45383;DHT22;42455;51.660;5.824;2023-07-29T08:10:56;22.5;92.5
45383;DHT22;42455;51.660;5.824;2023-07-29T08:16:00;22.5;92.0
45383;DHT22;42455;51.660;5.824;2023-07-29T08:21:07;22.5;92.0
45383;DHT22;42455;51.660;5.824;2023-07-29T08:26:13;22.5;92.0
45383;DHT22;42455;51.660;5.824;2023-07-29T08:31:19;22.6;92.0
45383;DHT22;42455;51.660;5.824;2023-07-29T08:36:26;22.7;92.0
45383;DHT22;42455;51.660;5.824;2023-07-29T08:41:35;22.9;91.5
45383;DHT22;42455;51.660;5.824;2023-07-29T08:46:38;23.0;91.0
45383;DHT22;42455;51.660;5.824;2023-07-29T08:51:45;23.2;91.0
45383;DHT22;42455;51.660;5.824;2023-07-29T08:56:50;23.4;90.5
45383;DHT22;42455;51.660;5.824;2023-07-29T09:01:55;23.6;90.0
45383;DHT22;42455;51.660;5.824;2023-07-29T09:07:02;23.7;89.5
45383;DHT22;42455;51.660;5.824;2023-07-29T09:12:08;23.8;89.0
45383;DHT22;42455;51.660;5.824;2023-07-29T09:17:14;23.9;88.5
45383;DHT22;42455;51.660;5.824;2023-07-29T09:22:20;24.0;89.0
45383;DHT22;42455;51.660;5.824;2023-07-29T09:27:28;24.2;88.5
45383;DHT22;42455;51.660;5.824;2023-07-29T09:32:33;24.4;89.0
45383;DHT22;42455;51.660;5.824;2023-07-29T09:37:39;24.6;88.0
45383;DHT22;42455;51.660;5.824;2023-07-29T09:42:48;24.7;87.0
45383;DHT22;42455;51.660;5.824;2023-07-29T09:47:52;24.8;86.0
45383;DHT22;42455;51.660;5.824;2023-07-29T09:52:58;24.9;86.0
45383;DHT22;42455;51.660;5.824;2023-07-29T09:58:04;25.0;86.0
45383;DHT22;42455;51.660;5.824;2023-07-29T10:03:10;25.2;86.0
45383;DHT22;42455;51.660;5.824;2023-07-29T10:08:17;25.4;85.5
45383;DHT22;42455;51.660;5.824;2023-07-29T10:13:23;25.6;84.0
45383;DHT22;42455;51.660;5.824;2023-07-29T10:18:29;25.6;83.0
45383;DHT22;42455;51.660;5.824;2023-07-29T10:23:42;25.6;82.5
45383;DHT22;42455;51.660;5.824;2023-07-29T10:28:47;25.4;82.0
45383;DHT22;42455;51.660;5.824;2023-07-29T10:33:47;25.4;82.5
45383;DHT22;42455;51.660;5.824;2023-07-29T10:38:53;25.4;82.5
45383;DHT22;42455;51.660;5.824;2023-07-29T10:43:59;25.5;82.5
45383;DHT22;42455;51.660;5.824;2023-07-29T10:49:06;25.6;83.0
45383;DHT22;42455;51.660;5.824;2023-07-29T10:54:14;25.9;82.5
45383;DHT22;42455;51.660;5.824;2023-07-29T10:59:57;26.1;82.0
45383;DHT22;42455;51.660;5.824;2023-07-29T11:04:25;26.3;82.5
45383;DHT22;42455;51.660;5.824;2023-07-29T11:09:45;26.5;82.0
45383;DHT22;42455;51.660;5.824;2023-07-29T11:14:37;26.7;80.5
45383;DHT22;42455;51.660;5.824;2023-07-29T11:19:43;26.9;80.0
45383;DHT22;42455;51.660;5.824;2023-07-29T11:24:49;26.9;79.5
45383;DHT22;42455;51.660;5.824;2023-07-29T11:30:00;26.8;79.0
45383;DHT22;42455;51.660;5.824;2023-07-29T11:35:02;26.7;79.0
45383;DHT22;42455;51.660;5.824;2023-07-29T11:40:08;26.5;78.5
45383;DHT22;42455;51.660;5.824;2023-07-29T11:45:14;26.3;78.5
45383;DHT22;42455;51.660;5.824;2023-07-29T11:50:20;26.2;78.5
45383;DHT22;42455;51.660;5.824;2023-07-29T11:55:26;26.0;78.5
45383;DHT22;42455;51.660;5.824;2023-07-29T12:00:33;25.9;79.0
45383;DHT22;42455;51.660;5.824;2023-07-29T12:05:39;25.9;80.0
45383;DHT22;42455;51.660;5.824;2023-07-29T12:10:45;25.9;80.5
45383;DHT22;42455;51.660;5.824;2023-07-29T12:15:51;25.9;81.0
45383;DHT22;42455;51.660;5.824;2023-07-29T12:20:58;26.2;81.5
45383;DHT22;42455;51.660;5.824;2023-07-29T12:26:04;26.5;82.0
45383;DHT22;42455;51.660;5.824;2023-07-29T12:31:10;26.6;80.0
45383;DHT22;42455;51.660;5.824;2023-07-29T12:36:16;26.6;78.5
45383;DHT22;42455;51.660;5.824;2023-07-29T12:41:22;26.4;78.0
45383;DHT22;42455;51.660;5.824;2023-07-29T12:46:29;25.9;77.0
45383;DHT22;42455;51.660;5.824;2023-07-29T12:51:35;25.2;77.5
45383;DHT22;42455;51.660;5.824;2023-07-29T12:56:41;24.5;79.5
45383;DHT22;42455;51.660;5.824;2023-07-29T13:01:47;23.9;81.5
45383;DHT22;42455;51.660;5.824;2023-07-29T13:06:53;23.3;83.5
45383;DHT22;42455;51.660;5.824;2023-07-29T13:12:00;23.0;85.0
45383;DHT22;42455;51.660;5.824;2023-07-29T13:17:06;22.7;86.5
45383;DHT22;42455;51.660;5.824;2023-07-29T13:22:12;22.5;87.5
45383;DHT22;42455;51.660;5.824;2023-07-29T13:27:18;22.4;88.5
45383;DHT22;42455;51.660;5.824;2023-07-29T13:32:24;22.3;90.0
45383;DHT22;42455;51.660;5.824;2023-07-29T13:37:31;22.3;90.5
45383;DHT22;42455;51.660;5.824;2023-07-29T13:42:37;22.4;92.0
45383;DHT22;42455;51.660;5.824;2023-07-29T13:47:43;22.7;93.0
45383;DHT22;42455;51.660;5.824;2023-07-29T13:52:49;23.0;93.0
45383;DHT22;42455;51.660;5.824;2023-07-29T13:57:56;23.2;93.0
45383;DHT22;42455;51.660;5.824;2023-07-29T14:03:02;23.4;92.5
45383;DHT22;42455;51.660;5.824;2023-07-29T14:08:08;23.6;92.5
45383;DHT22;42455;51.660;5.824;2023-07-29T14:13:14;23.9;92.5
45383;DHT22;42455;51.660;5.824;2023-07-29T14:18:20;24.0;92.0
45383;DHT22;42455;51.660;5.824;2023-07-29T14:23:27;24.2;91.5
45383;DHT22;42455;51.660;5.824;2023-07-29T14:28:33;24.4;91.5
45383;DHT22;42455;51.660;5.824;2023-07-29T14:33:38;24.6;91.0
45383;DHT22;42455;51.660;5.824;2023-07-29T14:38:44;24.7;90.5
45383;DHT22;42455;51.660;5.824;2023-07-29T14:43:50;24.9;90.5
45383;DHT22;42455;51.660;5.824;2023-07-29T14:48:57;25.2;90.5
45383;DHT22;42455;51.660;5.824;2023-07-29T14:54:03;25.3;90.0
45383;DHT22;42455;51.660;5.824;2023-07-29T14:59:09;25.5;90.0
45383;DHT22;42455;51.660;5.824;2023-07-29T15:04:14;25.6;89.0
45383;DHT22;42455;51.660;5.824;2023-07-29T15:09:20;25.7;89.0
45383;DHT22;42455;51.660;5.824;2023-07-29T15:14:27;25.9;89.5
45383;DHT22;42455;51.660;5.824;2023-07-29T15:19:33;26.1;88.0
45383;DHT22;42455;51.660;5.824;2023-07-29T15:24:39;26.2;87.0
45383;DHT22;42455;51.660;5.824;2023-07-29T15:29:46;26.2;86.0
45383;DHT22;42455;51.660;5.824;2023-07-29T15:34:51;26.2;85.5
45383;DHT22;42455;51.660;5.824;2023-07-29T15:39:58;26.1;84.5
45383;DHT22;42455;51.660;5.824;2023-07-29T15:45:04;26.0;84.5
45383;DHT22;42455;51.660;5.824;2023-07-29T15:50:10;26.0;84.5
45383;DHT22;42455;51.660;5.824;2023-07-29T15:55:17;25.9;84.5
45383;DHT22;42455;51.660;5.824;2023-07-29T16:00:23;25.9;84.5
45383;DHT22;42455;51.660;5.824;2023-07-29T16:05:29;25.7;84.0
45383;DHT22;42455;51.660;5.824;2023-07-29T16:10:35;25.6;83.5
45383;DHT22;42455;51.660;5.824;2023-07-29T16:15:41;25.4;84.0
45383;DHT22;42455;51.660;5.824;2023-07-29T16:20:47;25.3;84.5
45383;DHT22;42455;51.660;5.824;2023-07-29T16:25:54;25.1;85.5
45383;DHT22;42455;51.660;5.824;2023-07-29T16:31:00;24.9;85.5
45383;DHT22;42455;51.660;5.824;2023-07-29T16:36:06;24.5;86.0
45383;DHT22;42455;51.660;5.824;2023-07-29T16:41:12;24.1;87.5
45383;DHT22;42455;51.660;5.824;2023-07-29T16:46:19;23.9;89.5
45383;DHT22;42455;51.660;5.824;2023-07-29T16:51:25;23.9;90.5
45383;DHT22;42455;51.660;5.824;2023-07-29T16:56:31;24.0;91.5
45383;DHT22;42455;51.660;5.824;2023-07-29T17:01:37;24.2;92.0
45383;DHT22;42455;51.660;5.824;2023-07-29T17:06:43;24.4;92.0
45383;DHT22;42455;51.660;5.824;2023-07-29T17:11:50;24.5;92.0
45383;DHT22;42455;51.660;5.824;2023-07-29T17:16:56;24.6;91.0
45383;DHT22;42455;51.660;5.824;2023-07-29T17:22:02;24.6;91.0
45383;DHT22;42455;51.660;5.824;2023-07-29T17:27:08;24.7;91.0
45383;DHT22;42455;51.660;5.824;2023-07-29T17:32:14;24.8;91.0
45383;DHT22;42455;51.660;5.824;2023-07-29T17:37:21;24.8;90.5
45383;DHT22;42455;51.660;5.824;2023-07-29T17:42:27;24.8;90.5
45383;DHT22;42455;51.660;5.824;2023-07-29T17:47:33;24.9;90.5
45383;DHT22;42455;51.660;5.824;2023-07-29T17:52:39;24.8;90.5
45383;DHT22;42455;51.660;5.824;2023-07-29T17:57:45;24.7;91.0
45383;DHT22;42455;51.660;5.824;2023-07-29T18:02:52;24.6;91.5
45383;DHT22;42455;51.660;5.824;2023-07-29T18:07:58;24.6;91.5
45383;DHT22;42455;51.660;5.824;2023-07-29T18:13:04;24.5;91.5
45383;DHT22;42455;51.660;5.824;2023-07-29T18:18:10;24.4;91.5
45383;DHT22;42455;51.660;5.824;2023-07-29T18:23:16;24.3;91.5
45383;DHT22;42455;51.660;5.824;2023-07-29T18:28:23;24.3;91.5
45383;DHT22;42455;51.660;5.824;2023-07-29T18:33:29;24.1;91.5
45383;DHT22;42455;51.660;5.824;2023-07-29T18:38:35;23.9;91.5
45383;DHT22;42455;51.660;5.824;2023-07-29T18:43:41;23.7;91.5
45383;DHT22;42455;51.660;5.824;2023-07-29T18:53:54;23.4;92.0
45383;DHT22;42455;51.660;5.824;2023-07-29T18:59:00;23.2;92.0
45383;DHT22;42455;51.660;5.824;2023-07-29T19:04:06;23.1;92.5
45383;DHT22;42455;51.660;5.824;2023-07-29T19:09:12;22.9;92.5
45383;DHT22;42455;51.660;5.824;2023-07-29T19:14:19;22.8;92.5
45383;DHT22;42455;51.660;5.824;2023-07-29T19:19:25;22.6;93.0
45383;DHT22;42455;51.660;5.824;2023-07-29T19:24:31;22.4;93.0
45383;DHT22;42455;51.660;5.824;2023-07-29T19:29:37;22.3;93.5
45383;DHT22;42455;51.660;5.824;2023-07-29T19:34:43;22.2;93.5
45383;DHT22;42455;51.660;5.824;2023-07-29T19:39:50;22.1;94.0
45383;DHT22;42455;51.660;5.824;2023-07-29T19:44:56;22.0;94.0
45383;DHT22;42455;51.660;5.824;2023-07-29T19:50:02;22.0;93.5
45383;DHT22;42455;51.660;5.824;2023-07-29T19:55:08;21.9;93.0
45383;DHT22;42455;51.660;5.824;2023-07-29T20:00:14;21.7;92.5
45383;DHT22;42455;51.660;5.824;2023-07-29T20:05:21;21.6;92.5
45383;DHT22;42455;51.660;5.824;2023-07-29T20:10:27;21.5;92.0
45383;DHT22;42455;51.660;5.824;2023-07-29T20:15:33;21.3;92.0
45383;DHT22;42455;51.660;5.824;2023-07-29T20:20:39;21.2;92.0
45383;DHT22;42455;51.660;5.824;2023-07-29T20:25:47;21.1;92.0
45383;DHT22;42455;51.660;5.824;2023-07-29T20:30:54;20.9;92.5
45383;DHT22;42455;51.660;5.824;2023-07-29T20:35:58;20.8;92.5
45383;DHT22;42455;51.660;5.824;2023-07-29T20:41:03;20.7;92.5
45383;DHT22;42455;51.660;5.824;2023-07-29T20:46:16;20.6;92.5
45383;DHT22;42455;51.660;5.824;2023-07-29T20:51:16;20.5;92.5
45383;DHT22;42455;51.660;5.824;2023-07-29T20:56:22;20.4;93.0
45383;DHT22;42455;51.660;5.824;2023-07-29T21:01:28;20.3;93.0
45383;DHT22;42455;51.660;5.824;2023-07-29T21:06:35;20.2;93.0
45383;DHT22;42455;51.660;5.824;2023-07-29T21:11:40;20.0;93.5
45383;DHT22;42455;51.660;5.824;2023-07-29T21:16:47;20.0;93.5
45383;DHT22;42455;51.660;5.824;2023-07-29T21:21:53;19.9;93.5
45383;DHT22;42455;51.660;5.824;2023-07-29T21:26:59;19.8;93.5
45383;DHT22;42455;51.660;5.824;2023-07-29T21:32:05;19.7;94.0
45383;DHT22;42455;51.660;5.824;2023-07-29T21:37:11;19.6;94.0
45383;DHT22;42455;51.660;5.824;2023-07-29T21:42:18;19.5;94.0
45383;DHT22;42455;51.660;5.824;2023-07-29T21:47:24;19.5;94.0
45383;DHT22;42455;51.660;5.824;2023-07-29T21:52:30;19.4;94.0
45383;DHT22;42455;51.660;5.824;2023-07-29T21:57:36;19.3;94.0
45383;DHT22;42455;51.660;5.824;2023-07-29T22:02:42;19.3;94.0
45383;DHT22;42455;51.660;5.824;2023-07-29T22:07:49;19.2;94.0
45383;DHT22;42455;51.660;5.824;2023-07-29T22:12:55;19.1;94.0
45383;DHT22;42455;51.660;5.824;2023-07-29T22:18:01;19.1;93.5
45383;DHT22;42455;51.660;5.824;2023-07-29T22:23:07;19.0;93.5
45383;DHT22;42455;51.660;5.824;2023-07-29T22:28:14;18.9;94.0
45383;DHT22;42455;51.660;5.824;2023-07-29T22:33:20;18.9;94.0
45383;DHT22;42455;51.660;5.824;2023-07-29T22:38:26;18.8;93.5
45383;DHT22;42455;51.660;5.824;2023-07-29T22:43:32;18.7;93.5
45383;DHT22;42455;51.660;5.824;2023-07-29T22:48:39;18.6;93.5
45383;DHT22;42455;51.660;5.824;2023-07-29T22:53:45;18.6;93.5
45383;DHT22;42455;51.660;5.824;2023-07-29T22:58:51;18.5;93.5
45383;DHT22;42455;51.660;5.824;2023-07-29T23:03:57;18.5;94.0
45383;DHT22;42455;51.660;5.824;2023-07-29T23:09:03;18.4;94.0
45383;DHT22;42455;51.660;5.824;2023-07-29T23:14:09;18.3;94.0
45383;DHT22;42455;51.660;5.824;2023-07-29T23:19:16;18.3;94.0
45383;DHT22;42455;51.660;5.824;2023-07-29T23:24:22;18.2;94.0
45383;DHT22;42455;51.660;5.824;2023-07-29T23:29:28;18.2;94.0
45383;DHT22;42455;51.660;5.824;2023-07-29T23:34:34;18.1;94.0
45383;DHT22;42455;51.660;5.824;2023-07-29T23:39:40;18.0;94.0
45383;DHT22;42455;51.660;5.824;2023-07-29T23:44:47;18.0;94.0
45383;DHT22;42455;51.660;5.824;2023-07-29T23:49:53;18.0;94.0
45383;DHT22;42455;51.660;5.824;2023-07-29T23:54:59;17.9;94.0
